createdAt,value
2023-03-21T00:01:14.968Z,166.57
2023-03-21T00:05:15.980Z,168.28
2023-03-21T00:09:14.911Z,166.50
2023-03-21T00:13:14.851Z,167.05
2023-03-21T00:17:14.772Z,166.10
2023-03-21T00:21:46.242Z,165.30
2023-03-21T00:25:15.753Z,166.56
2023-03-21T00:29:14.760Z,168.93
2023-03-21T00:33:22.369Z,164.45
2023-03-21T00:37:15.639Z,163.04
2023-03-21T00:41:25.870Z,165.99
2023-03-21T00:45:15.585Z,167.63
2023-03-21T00:49:14.489Z,165.83
2023-03-21T00:53:14.953Z,162.95
2023-03-21T00:57:14.448Z,163.71
2023-03-21T01:01:14.466Z,159.04
2023-03-21T01:05:14.358Z,160.55
2023-03-21T01:09:14.338Z,160.10
2023-03-21T01:13:14.244Z,163.77
2023-03-21T01:17:14.257Z,161.48
2023-03-21T01:21:14.181Z,158.07
2023-03-21T01:25:22.304Z,158.86
2023-03-21T01:29:15.170Z,159.21
2023-03-21T01:33:14.145Z,158.35
2023-03-21T01:37:14.093Z,156.85
2023-03-21T01:41:19.439Z,158.50
2023-03-21T01:45:14.981Z,157.12
2023-03-21T01:49:13.993Z,157.75
2023-03-21T01:53:13.939Z,156.74
2023-03-21T01:57:13.906Z,159.35
2023-03-21T02:01:13.868Z,156.05
2023-03-21T02:05:13.791Z,158.42
2023-03-21T02:09:13.840Z,152.57
2023-03-21T02:13:13.738Z,152.64
2023-03-21T02:17:13.735Z,151.44
2023-03-21T02:21:13.788Z,152.44
2023-03-21T02:25:21.830Z,154.05
2023-03-21T02:29:15.417Z,154.31
2023-03-21T02:33:13.689Z,152.07
2023-03-21T02:37:13.660Z,152.93
2023-03-21T02:41:19.048Z,153.04
2023-03-21T02:45:14.574Z,152.75
2023-03-21T02:49:13.571Z,149.93
2023-03-21T02:53:13.497Z,151.63
2023-03-21T02:57:13.443Z,152.30
2023-03-21T03:01:13.509Z,149.55
2023-03-21T03:05:20.760Z,149.42
2023-03-21T03:09:14.438Z,149.57
2023-03-21T03:13:13.347Z,148.67
2023-03-21T03:17:13.317Z,146.73
2023-03-21T03:21:13.285Z,147.49
2023-03-21T03:25:23.164Z,147.80
2023-03-21T03:29:14.227Z,149.28
2023-03-21T03:33:13.160Z,144.91
2023-03-21T03:37:13.082Z,145.54
2023-03-21T03:41:13.096Z,144.11
2023-03-21T03:45:13.060Z,145.72
2023-03-21T03:49:13.473Z,148.93
2023-03-21T03:53:18.176Z,144.73
2023-03-21T03:57:14.039Z,144.24
2023-03-21T04:01:12.906Z,144.65
2023-03-21T04:05:12.841Z,147.26
2023-03-21T04:09:20.906Z,143.30
2023-03-21T04:13:13.816Z,144.44
2023-03-21T04:17:12.772Z,141.15
2023-03-21T04:21:12.683Z,142.06
2023-03-21T04:25:14.164Z,144.40
2023-03-21T04:29:12.625Z,146.19
2023-03-21T04:33:12.637Z,142.15
2023-03-21T04:37:12.557Z,144.47
2023-03-21T04:41:12.506Z,142.56
2023-03-21T04:45:12.453Z,142.16
2023-03-21T04:49:12.436Z,141.06
2023-03-21T04:53:12.401Z,138.09
2023-03-21T04:57:12.433Z,140.11
2023-03-21T05:01:12.372Z,140.58
2023-03-21T05:05:12.342Z,127.33
2023-03-21T05:09:12.239Z,117.62
2023-03-21T05:13:12.193Z,110.65
2023-03-21T05:17:12.149Z,106.26
2023-03-21T05:21:12.105Z,102.41
2023-03-21T05:25:12.109Z,100.15
2023-03-21T05:29:12.101Z,90.21
2023-03-21T05:33:12.043Z,97.05
2023-03-21T05:37:12.011Z,92.95
2023-03-21T05:41:11.967Z,90.31
2023-03-21T05:45:11.896Z,99.37
2023-03-21T05:49:11.853Z,99.15
2023-03-21T05:53:11.856Z,96.70
2023-03-21T05:57:11.772Z,93.68
2023-03-21T06:01:11.778Z,92.86
2023-03-21T06:05:11.695Z,91.42
2023-03-21T06:09:11.688Z,90.82
2023-03-21T06:13:11.650Z,84.90
2023-03-21T06:17:11.638Z,77.72
2023-03-21T06:21:11.607Z,75.33
2023-03-21T06:25:11.532Z,64.78
2023-03-21T06:29:11.489Z,58.63
2023-03-21T06:33:11.624Z,73.71
2023-03-21T06:37:11.726Z,92.93
2023-03-21T06:41:12.091Z,88.85
2023-03-21T06:45:12.096Z,99.60
2023-03-21T06:49:12.564Z,87.42
2023-03-21T06:53:12.327Z,94.74
2023-03-21T06:57:12.400Z,95.93
2023-03-21T07:01:12.357Z,95.02
2023-03-21T07:05:12.442Z,93.61
2023-03-21T07:09:12.376Z,96.33
2023-03-21T07:13:12.366Z,98.46
2023-03-21T07:17:12.428Z,94.53
2023-03-21T07:21:12.422Z,94.30
2023-03-21T07:25:12.454Z,92.58
2023-03-21T07:29:12.367Z,92.40
2023-03-21T07:33:12.510Z,95.52
2023-03-21T07:37:12.568Z,100.86
2023-03-21T07:41:12.632Z,134.64
2023-03-21T07:45:12.310Z,186.93
2023-03-21T07:49:12.437Z,190.65
2023-03-21T07:53:12.296Z,188.20
2023-03-21T07:57:13.779Z,158.49
2023-03-21T08:01:12.312Z,169.01
2023-03-21T08:05:12.418Z,148.27
2023-03-21T08:09:12.545Z,142.00
2023-03-21T08:13:12.605Z,136.20
2023-03-21T08:17:12.645Z,134.91
2023-03-21T08:21:12.755Z,145.14
2023-03-21T08:25:12.956Z,144.40
2023-03-21T08:29:12.879Z,150.54
2023-03-21T08:33:12.848Z,158.81
2023-03-21T08:37:13.153Z,154.31
2023-03-21T08:41:12.798Z,149.18
2023-03-21T08:45:12.723Z,139.39
2023-03-21T08:49:12.782Z,125.65
2023-03-21T08:53:12.676Z,121.37
2023-03-21T08:57:12.634Z,116.67
2023-03-21T09:01:12.593Z,112.99
2023-03-21T09:05:12.578Z,110.28
2023-03-21T09:09:12.511Z,112.60
2023-03-21T09:13:12.475Z,105.09
2023-03-21T09:17:12.435Z,96.84
2023-03-21T09:21:12.433Z,81.48
2023-03-21T09:25:12.390Z,76.01
2023-03-21T09:29:12.370Z,79.24
2023-03-21T09:33:12.343Z,31.71
2023-03-21T09:37:12.330Z,74.93
2023-03-21T09:41:12.248Z,61.25
2023-03-21T09:45:12.230Z,29.40
2023-03-21T09:49:12.218Z,69.06
2023-03-21T09:53:12.121Z,67.77
2023-03-21T09:57:12.108Z,68.10
2023-03-21T10:01:12.102Z,80.01
2023-03-21T10:05:12.092Z,76.65
2023-03-21T10:09:12.150Z,76.21
2023-03-21T10:13:12.000Z,90.88
2023-03-21T10:17:11.933Z,80.51
2023-03-21T10:21:12.137Z,88.49
2023-03-21T10:25:12.207Z,76.90
2023-03-21T10:29:11.929Z,84.64
2023-03-21T10:33:12.387Z,71.28
2023-03-21T10:37:11.821Z,91.78
2023-03-21T10:41:11.851Z,99.62
2023-03-21T10:45:12.107Z,94.62
2023-03-21T10:49:11.751Z,94.79
2023-03-21T10:53:11.646Z,70.32
2023-03-21T10:57:11.649Z,32.82
2023-03-21T11:01:11.648Z,59.99
2023-03-21T11:05:11.782Z,55.73
2023-03-21T11:09:11.694Z,57.02
2023-03-21T11:13:11.780Z,48.59
2023-03-21T11:17:11.659Z,52.09
2023-03-21T11:21:11.621Z,78.86
2023-03-21T11:25:11.606Z,79.93
2023-03-21T11:29:11.645Z,113.39
2023-03-21T11:33:11.545Z,97.74
2023-03-21T11:37:11.513Z,108.41
2023-03-21T11:41:11.474Z,98.75
2023-03-21T11:45:11.450Z,89.93
2023-03-21T11:49:11.365Z,48.85
2023-03-21T11:53:11.354Z,26.34
2023-03-21T11:57:11.424Z,31.72
2023-03-21T12:01:11.620Z,32.65
2023-03-21T12:05:11.719Z,39.90
2023-03-21T12:09:11.919Z,44.69
2023-03-21T12:13:12.145Z,53.77
2023-03-21T12:17:12.338Z,64.52
2023-03-21T12:21:12.649Z,85.76
2023-03-21T12:25:12.669Z,101.42
2023-03-21T12:29:12.989Z,98.55
2023-03-21T12:33:13.067Z,91.74
2023-03-21T12:37:13.226Z,104.09
2023-03-21T12:41:13.402Z,84.37
2023-03-21T12:45:15.729Z,71.56
2023-03-21T12:49:13.684Z,46.81
2023-03-21T12:53:13.905Z,56.05
2023-03-21T12:57:14.086Z,49.17
2023-03-21T13:01:14.437Z,39.52
2023-03-21T13:05:14.482Z,67.69
2023-03-21T13:09:14.672Z,51.00
2023-03-21T13:13:14.867Z,55.18
2023-03-21T13:17:15.123Z,48.71
2023-03-21T13:21:15.282Z,59.36
2023-03-21T13:25:15.399Z,79.71
2023-03-21T13:29:15.584Z,85.15
2023-03-21T13:33:15.833Z,64.59
2023-03-21T13:37:15.955Z,57.43
2023-03-21T13:41:16.138Z,53.00
2023-03-21T13:45:16.300Z,39.67
2023-03-21T13:49:16.564Z,81.34
2023-03-21T13:53:16.701Z,70.78
2023-03-21T13:57:16.848Z,78.60
2023-03-21T14:01:17.023Z,91.58
2023-03-21T14:05:17.453Z,93.93
2023-03-21T14:09:17.446Z,74.00
2023-03-21T14:13:17.670Z,70.11
2023-03-21T14:17:17.848Z,79.53
2023-03-21T14:21:23.742Z,102.58
2023-03-21T14:25:18.984Z,103.96
2023-03-21T14:29:25.794Z,107.05
2023-03-21T14:33:18.930Z,105.52
2023-03-21T14:37:17.959Z,98.68
2023-03-21T14:41:18.062Z,97.49
2023-03-21T14:45:20.237Z,96.26
2023-03-21T14:49:18.218Z,93.63
2023-03-21T14:53:18.265Z,82.16
2023-03-21T14:57:18.192Z,64.40
2023-03-21T15:01:18.123Z,54.92
2023-03-21T15:05:18.095Z,61.24
2023-03-21T15:09:18.103Z,73.00
2023-03-21T15:13:18.044Z,79.97
2023-03-21T15:17:17.965Z,85.06
2023-03-21T15:21:17.924Z,95.69
2023-03-21T15:25:18.166Z,93.68
2023-03-21T15:29:18.022Z,103.26
2023-03-21T15:33:18.029Z,104.21
2023-03-21T15:37:17.945Z,106.46
2023-03-21T15:41:18.024Z,107.89
2023-03-21T15:45:17.868Z,111.68
2023-03-21T15:49:17.894Z,111.80
2023-03-21T15:53:18.232Z,101.25
2023-03-21T15:57:17.900Z,93.43
2023-03-21T16:01:17.758Z,88.25
2023-03-21T16:05:17.840Z,96.40
2023-03-21T16:09:17.896Z,96.25
2023-03-21T16:13:17.878Z,110.66
2023-03-21T16:17:17.777Z,104.17
2023-03-21T16:21:17.745Z,114.66
2023-03-21T16:25:17.702Z,102.19
2023-03-21T16:29:17.655Z,110.89
2023-03-21T16:33:17.618Z,114.91
2023-03-21T16:37:17.632Z,120.49
2023-03-21T16:41:17.561Z,119.35
2023-03-21T16:45:17.499Z,116.43
2023-03-21T16:49:17.483Z,119.37
2023-03-21T16:53:17.406Z,117.64
2023-03-21T16:57:17.407Z,119.56
2023-03-21T17:01:17.378Z,117.46
2023-03-21T17:05:17.333Z,117.57
2023-03-21T17:09:17.755Z,122.23
2023-03-21T17:13:17.267Z,131.18
2023-03-21T17:17:17.190Z,150.85
2023-03-21T17:21:17.396Z,164.30
2023-03-21T17:25:17.334Z,172.91
2023-03-21T17:29:17.314Z,176.58
2023-03-21T17:33:17.230Z,180.61
2023-03-21T17:37:17.209Z,185.91
2023-03-21T17:41:17.228Z,190.97
2023-03-21T17:45:17.126Z,200.07
2023-03-21T17:49:17.099Z,204.26
2023-03-21T17:53:17.095Z,206.35
2023-03-21T17:57:17.051Z,210.01
2023-03-21T18:01:17.028Z,209.52
2023-03-21T18:05:17.081Z,213.11
2023-03-21T18:09:19.887Z,217.91
2023-03-21T18:13:17.203Z,217.40
2023-03-21T18:17:17.189Z,221.18
2023-03-21T18:21:19.601Z,223.37
2023-03-21T18:25:17.138Z,221.83
2023-03-21T18:33:18.042Z,216.20
2023-03-21T18:37:17.000Z,216.60
2023-03-21T18:41:17.026Z,213.24
2023-03-21T18:45:17.007Z,211.17
2023-03-21T18:53:17.947Z,204.00
2023-03-21T18:57:37.106Z,196.59
2023-03-21T19:01:18.436Z,183.09
2023-03-21T19:05:17.090Z,196.97
2023-03-21T19:09:18.117Z,186.45
2023-03-21T19:13:16.718Z,188.13
2023-03-21T19:18:15.337Z,169.63
2023-03-21T19:21:17.679Z,164.97
2023-03-21T19:25:16.677Z,151.66
2023-03-21T19:29:16.609Z,172.23
2023-03-21T19:33:16.556Z,166.08
2023-03-21T19:37:16.525Z,134.22
2023-03-21T19:41:16.567Z,119.55
2023-03-21T19:45:16.466Z,153.98
2023-03-21T19:49:17.816Z,167.52
2023-03-21T19:53:16.424Z,174.53
2023-03-21T19:57:16.337Z,177.58
2023-03-21T20:01:16.409Z,178.60
2023-03-21T20:05:16.306Z,178.23
2023-03-21T20:09:50.566Z,176.05
2023-03-21T20:13:17.217Z,176.45
2023-03-21T20:17:16.358Z,173.15
2023-03-21T20:21:21.492Z,167.79
2023-03-21T20:25:17.117Z,168.15
2023-03-21T20:33:17.008Z,166.53
2023-03-21T20:37:15.970Z,158.54
2023-03-21T20:41:16.002Z,154.09
2023-03-21T20:45:16.108Z,150.58
2023-03-21T20:49:16.123Z,154.93
2023-03-21T20:53:16.223Z,157.38
2023-03-21T20:57:16.244Z,156.19
2023-03-21T21:01:16.220Z,149.53
2023-03-21T21:05:34.559Z,152.07
2023-03-21T21:09:17.251Z,154.04
2023-03-21T21:13:16.104Z,149.05
2023-03-21T21:17:54.581Z,144.03
2023-03-21T21:21:17.058Z,143.87
2023-03-21T21:25:16.041Z,139.02
2023-03-21T21:29:15.982Z,141.03
2023-03-21T21:33:15.935Z,138.63
2023-03-21T21:37:15.861Z,132.71
2023-03-21T21:41:15.893Z,131.42
2023-03-21T21:45:15.857Z,133.65
2023-03-21T21:49:15.824Z,131.84
2023-03-21T21:53:15.778Z,125.78
2023-03-21T21:57:15.686Z,120.72
2023-03-21T22:01:15.736Z,126.48
2023-03-21T22:05:15.687Z,121.04
2023-03-21T22:09:15.772Z,119.01
2023-03-21T22:13:15.691Z,119.31
2023-03-21T22:17:15.668Z,114.25
2023-03-21T22:21:15.687Z,120.36
2023-03-21T22:25:15.664Z,117.20
2023-03-21T22:29:15.641Z,112.99
2023-03-21T22:33:15.635Z,116.62
2023-03-21T22:37:15.602Z,113.42
2023-03-21T22:41:15.628Z,113.37
2023-03-21T22:45:15.613Z,117.60
2023-03-21T22:49:15.665Z,117.71
2023-03-21T22:53:15.671Z,119.95
2023-03-21T22:57:15.690Z,118.27
2023-03-21T23:01:18.693Z,120.55
2023-03-21T23:05:15.682Z,120.40
2023-03-21T23:09:15.631Z,122.15
2023-03-21T23:13:15.607Z,122.15
2023-03-21T23:17:15.520Z,121.91
2023-03-21T23:21:15.474Z,128.37
2023-03-21T23:25:15.475Z,127.81
2023-03-21T23:29:15.452Z,124.79
2023-03-21T23:33:15.352Z,121.78
2023-03-21T23:37:15.387Z,125.41
2023-03-21T23:41:15.323Z,127.01
2023-03-21T23:45:15.252Z,125.50
2023-03-21T23:49:15.247Z,127.10
2023-03-21T23:53:15.210Z,127.85
2023-03-21T23:57:15.208Z,124.74
